Time;durP1;ratioP1;P1;durP2;ratioP2;P2;SDS_P1;SDS_P2;PMS_P1;PMS_P2;Temp;Humidity;BMP_temperature;BMP_pressure;BME280_temperature;BME280_humidity;BME280_pressure;Samples;Min_cycle;Max_cycle;Signal;HPM_P1;HPM_P2
2022/03/29 00:01:04;;;;;;;8.25;6.93;;;6.50;95.20;;;;;;604051;235;26666;-72
2022/03/29 00:03:31;;;;;;;8.73;7.80;;;6.60;95.60;;;;;;603812;237;27162;-72
2022/03/29 00:05:59;;;;;;;7.72;5.20;;;6.50;96.40;;;;;;605646;236;26667;-72
2022/03/29 00:08:27;;;;;;;10.63;9.23;;;6.50;95.80;;;;;;610501;233;26651;-72
2022/03/29 00:10:55;;;;;;;11.50;9.20;;;6.30;95.80;;;;;;610863;234;26712;-72
2022/03/29 00:13:22;;;;;;;9.55;8.65;;;6.30;95.80;;;;;;610876;235;26621;-72
2022/03/29 00:15:49;;;;;;;8.95;7.47;;;6.20;96.10;;;;;;607369;230;27015;-72
2022/03/29 00:18:16;;;;;;;12.07;10.10;;;6.20;96.50;;;;;;603015;235;26648;-72
2022/03/29 00:20:44;;;;;;;8.80;7.37;;;6.20;96.50;;;;;;608589;231;27255;-72
2022/03/29 00:23:12;;;;;;;10.93;9.48;;;6.30;96.60;;;;;;611642;235;26584;-72
2022/03/29 00:25:40;;;;;;;11.32;9.90;;;6.30;96.60;;;;;;605917;236;26616;-72
2022/03/29 00:28:08;;;;;;;12.63;9.82;;;6.30;96.50;;;;;;603063;236;26584;-72
2022/03/29 00:30:35;;;;;;;10.43;8.68;;;6.30;96.50;;;;;;608890;235;26651;-72
2022/03/29 00:33:02;;;;;;;10.30;8.93;;;6.30;96.70;;;;;;603501;235;26573;-72
2022/03/29 00:35:30;;;;;;;11.67;9.30;;;6.40;96.50;;;;;;607243;235;26897;-72
2022/03/29 00:37:57;;;;;;;13.00;10.10;;;6.40;96.50;;;;;;602758;236;26837;-72
2022/03/29 00:40:24;;;;;;;10.95;8.80;;;6.50;96.40;;;;;;604830;236;26579;-72
2022/03/29 00:42:52;;;;;;;12.43;9.10;;;6.50;96.20;;;;;;603946;237;26829;-72
2022/03/29 00:45:19;;;;;;;10.13;8.90;;;6.50;96.30;;;;;;605798;234;26729;-72
2022/03/29 00:47:46;;;;;;;14.02;9.38;;;6.50;96.20;;;;;;608860;234;27127;-72
2022/03/29 00:50:14;;;;;;;11.95;9.48;;;6.60;97.30;;;;;;602408;238;26633;-73
2022/03/29 00:52:42;;;;;;;11.07;9.02;;;6.60;96.10;;;;;;605441;236;26585;-73
2022/03/29 00:55:12;;;;;;;9.07;7.75;;;6.70;96.90;;;;;;607435;234;26646;-73
2022/03/29 00:57:38;;;;;;;9.43;7.85;;;6.70;97.00;;;;;;602739;237;26647;-72
2022/03/29 01:00:08;;;;;;;9.77;8.50;;;6.80;95.90;;;;;;601758;236;26666;-72
2022/03/29 01:02:35;;;;;;;10.27;8.80;;;6.80;95.80;;;;;;607097;235;26615;-73
2022/03/29 01:05:02;;;;;;;9.57;7.80;;;6.90;96.00;;;;;;612277;234;26872;-73
2022/03/29 01:07:29;;;;;;;11.48;9.10;;;6.90;95.90;;;;;;606170;234;26653;-73
2022/03/29 01:09:56;;;;;;;10.07;8.98;;;6.70;95.90;;;;;;602231;232;26852;-73
2022/03/29 01:12:24;;;;;;;10.00;7.40;;;6.70;96.30;;;;;;603260;238;26591;-72
2022/03/29 01:14:51;;;;;;;10.15;7.75;;;6.70;96.10;;;;;;603103;236;26672;-73
2022/03/29 01:19:53;;;;;;;6.47;5.57;;;6.60;96.10;;;;;;608767;233;26615;-73
2022/03/29 01:22:20;;;;;;;11.30;9.73;;;6.80;96.10;;;;;;603980;237;26883;-72
2022/03/29 01:24:47;;;;;;;11.15;8.77;;;6.80;96.20;;;;;;605341;235;27065;-72
2022/03/29 01:27:14;;;;;;;9.50;8.25;;;6.90;96.10;;;;;;609940;235;26636;-72
2022/03/29 01:29:43;;;;;;;12.37;7.70;;;6.80;96.00;;;;;;605238;235;26909;-72
2022/03/29 01:32:10;;;;;;;10.27;9.25;;;6.90;96.30;;;;;;604961;236;26621;-73
2022/03/29 01:34:37;;;;;;;9.30;7.50;;;6.80;96.20;;;;;;607741;235;26570;-73
2022/03/29 01:37:04;;;;;;;9.23;8.20;;;6.80;96.10;;;;;;605568;232;26624;-72
2022/03/29 01:39:32;;;;;;;10.77;8.63;;;6.80;96.20;;;;;;603733;237;26554;-72
2022/03/29 01:42:00;;;;;;;9.95;8.68;;;6.90;96.00;;;;;;604847;236;26577;-72
2022/03/29 01:44:27;;;;;;;10.15;9.15;;;6.70;96.00;;;;;;609740;235;27228;-72
2022/03/29 01:46:55;;;;;;;9.32;8.38;;;6.90;96.20;;;;;;609427;234;26881;-72
2022/03/29 01:49:22;;;;;;;5.43;4.95;;;6.90;96.70;;;;;;603221;237;26551;-72
2022/03/29 01:51:49;;;;;;;12.20;9.98;;;6.80;96.70;;;;;;608261;236;26887;-72
2022/03/29 01:54:17;;;;;;;10.38;7.53;;;6.80;96.90;;;;;;604206;235;26586;-72
2022/03/29 01:56:45;;;;;;;11.60;9.88;;;6.70;96.40;;;;;;605157;232;26604;-72
2022/03/29 01:59:13;;;;;;;12.43;9.30;;;6.70;96.50;;;;;;601703;236;26607;-73
2022/03/29 02:01:43;;;;;;;13.32;9.30;;;6.70;96.60;;;;;;602766;235;26625;-73
2022/03/29 02:04:10;;;;;;;10.18;8.90;;;6.70;96.60;;;;;;603210;236;26843;-72
2022/03/29 02:06:37;;;;;;;11.35;9.52;;;6.80;96.30;;;;;;603458;237;26648;-72
2022/03/29 02:09:06;;;;;;;9.25;7.65;;;6.60;96.30;;;;;;605205;235;26813;-72
2022/03/29 02:11:31;;;;;;;10.77;9.25;;;6.80;97.10;;;;;;607149;236;26570;-72
2022/03/29 02:13:59;;;;;;;12.55;9.35;;;7.00;96.60;;;;;;602464;235;27166;-72
2022/03/29 02:16:26;;;;;;;9.07;8.13;;;6.80;95.90;;;;;;603813;234;26596;-72
2022/03/29 02:18:53;;;;;;;8.38;7.55;;;6.70;96.80;;;;;;601725;236;26901;-72
2022/03/29 02:21:21;;;;;;;10.57;9.43;;;6.70;96.20;;;;;;601712;236;26635;-72
2022/03/29 02:23:48;;;;;;;12.55;10.00;;;6.70;96.20;;;;;;604237;236;26656;-73
2022/03/29 02:26:15;;;;;;;9.68;8.02;;;6.80;96.30;;;;;;606735;236;26679;-72
2022/03/29 02:28:43;;;;;;;12.75;9.57;;;6.90;96.70;;;;;;604336;237;26823;-72
2022/03/29 02:31:10;;;;;;;11.90;9.80;;;6.70;97.00;;;;;;602761;236;26641;-72
2022/03/29 02:33:37;;;;;;;11.02;8.73;;;6.70;96.20;;;;;;604758;235;26862;-72
2022/03/29 02:36:04;;;;;;;18.23;11.47;;;6.70;96.40;;;;;;603626;237;26607;-73
2022/03/29 02:38:31;;;;;;;12.40;8.02;;;6.60;96.50;;;;;;610143;234;26596;-72
2022/03/29 02:41:00;;;;;;;7.65;6.78;;;6.60;96.50;;;;;;610913;235;26559;-72
2022/03/29 02:43:26;;;;;;;12.02;9.30;;;6.60;96.70;;;;;;608146;236;26584;-72
2022/03/29 02:45:54;;;;;;;12.90;9.50;;;6.70;97.10;;;;;;604010;238;26688;-64
2022/03/29 02:48:22;;;;;;;13.20;10.45;;;6.70;96.30;;;;;;602814;237;27233;-64
2022/03/29 02:50:49;;;;;;;11.18;10.05;;;6.70;96.40;;;;;;604940;236;26782;-64
2022/03/29 02:53:16;;;;;;;13.43;10.18;;;6.70;96.40;;;;;;604027;235;26570;-64
2022/03/29 02:55:45;;;;;;;14.35;10.82;;;6.60;96.40;;;;;;601977;238;26876;-64
2022/03/29 02:58:12;;;;;;;14.48;12.45;;;6.60;96.90;;;;;;604841;238;26583;-64
2022/03/29 03:00:39;;;;;;;11.75;9.10;;;6.50;96.60;;;;;;604898;237;26563;-64
2022/03/29 03:03:06;;;;;;;10.48;8.68;;;6.50;96.70;;;;;;604919;237;26586;-64
2022/03/29 03:05:34;;;;;;;12.20;10.05;;;6.50;96.80;;;;;;604814;234;26867;-64
2022/03/29 03:08:02;;;;;;;10.18;8.68;;;6.70;97.80;;;;;;604315;237;26823;-64
2022/03/29 03:10:29;;;;;;;11.95;9.73;;;6.70;96.60;;;;;;601455;237;26597;-64
2022/03/29 03:12:57;;;;;;;8.95;7.37;;;6.60;96.80;;;;;;601531;239;26604;-64
2022/03/29 03:15:25;;;;;;;9.65;8.65;;;6.50;96.90;;;;;;601503;239;26656;-64
2022/03/29 03:17:54;;;;;;;12.17;9.57;;;6.50;96.90;;;;;;601736;237;26862;-64
2022/03/29 03:20:22;;;;;;;15.27;11.65;;;6.60;97.10;;;;;;601556;239;26629;-64
2022/03/29 03:22:49;;;;;;;13.90;11.18;;;6.60;97.00;;;;;;601478;237;26681;-64
2022/03/29 03:25:16;;;;;;;13.80;11.10;;;6.50;97.40;;;;;;601508;237;26658;-64
2022/03/29 03:27:44;;;;;;;12.27;10.27;;;6.60;97.20;;;;;;601556;237;26635;-64
2022/03/29 03:30:12;;;;;;;10.15;9.07;;;6.60;96.90;;;;;;601520;237;26859;-64
2022/03/29 03:32:39;;;;;;;14.98;11.73;;;6.60;96.80;;;;;;602040;236;26871;-64
2022/03/29 03:35:06;;;;;;;4.75;4.25;;;6.60;97.10;;;;;;604814;237;26602;-64
2022/03/29 03:37:34;;;;;;;15.40;9.95;;;6.80;98.20;;;;;;604411;236;26563;-64
2022/03/29 03:40:01;;;;;;;12.85;9.88;;;6.90;96.90;;;;;;603450;237;26828;-64
2022/03/29 03:42:28;;;;;;;11.20;9.27;;;6.70;96.70;;;;;;603687;236;26547;-64
2022/03/29 03:44:58;;;;;;;7.20;5.82;;;6.90;97.50;;;;;;604850;235;26629;-64
2022/03/29 03:47:23;;;;;;;12.25;9.23;;;6.90;97.40;;;;;;611346;235;26608;-64
2022/03/29 03:49:50;;;;;;;13.23;10.73;;;6.90;97.00;;;;;;605045;235;26616;-64
2022/03/29 03:52:18;;;;;;;13.95;10.88;;;6.70;96.70;;;;;;605356;236;26588;-64
2022/03/29 03:54:46;;;;;;;6.70;6.00;;;6.70;97.00;;;;;;606935;236;26584;-64
2022/03/29 03:57:14;;;;;;;14.25;11.93;;;6.70;97.00;;;;;;605169;236;26840;-64
2022/03/29 03:59:41;;;;;;;15.43;12.00;;;6.90;96.50;;;;;;606084;235;26586;-64
2022/03/29 04:02:08;;;;;;;15.47;11.70;;;6.70;96.20;;;;;;603392;236;27036;-63
2022/03/29 04:04:35;;;;;;;18.27;12.77;;;6.60;96.10;;;;;;606778;236;26595;-64
2022/03/29 04:07:02;;;;;;;13.52;10.85;;;6.50;96.20;;;;;;608919;236;26900;-65
2022/03/29 04:09:30;;;;;;;17.97;12.57;;;6.50;96.40;;;;;;603940;236;26574;-65
2022/03/29 04:11:58;;;;;;;13.83;11.63;;;6.70;96.40;;;;;;604582;238;26580;-65
2022/03/29 04:14:26;;;;;;;15.15;11.70;;;6.60;95.70;;;;;;604502;236;26582;-65
2022/03/29 04:16:54;;;;;;;15.27;11.70;;;6.70;95.80;;;;;;604374;235;26610;-65
2022/03/29 04:19:22;;;;;;;15.27;12.02;;;6.70;96.00;;;;;;603640;235;26643;-65
2022/03/29 04:21:49;;;;;;;16.73;13.38;;;6.80;95.70;;;;;;603455;236;26634;-65
2022/03/29 04:24:17;;;;;;;15.52;13.02;;;6.80;95.90;;;;;;606083;235;26633;-65
2022/03/29 04:26:44;;;;;;;19.05;14.90;;;6.90;95.70;;;;;;606926;234;26613;-65
2022/03/29 04:29:12;;;;;;;17.33;13.00;;;6.90;95.00;;;;;;608301;235;26629;-65
2022/03/29 04:31:40;;;;;;;17.33;12.50;;;6.70;95.30;;;;;;602740;238;26690;-65
2022/03/29 04:34:08;;;;;;;14.13;11.60;;;6.70;95.30;;;;;;603784;236;26593;-64
2022/03/29 04:36:35;;;;;;;13.47;11.13;;;6.70;95.20;;;;;;601462;239;26661;-63
2022/03/29 04:39:02;;;;;;;17.12;11.77;;;6.50;95.20;;;;;;603158;237;26592;-63
2022/03/29 04:41:30;;;;;;;12.90;10.37;;;6.50;95.50;;;;;;602037;235;26641;-63
2022/03/29 04:43:57;;;;;;;12.60;11.27;;;6.60;95.50;;;;;;604592;233;26637;-64
2022/03/29 04:46:24;;;;;;;18.08;13.23;;;6.60;95.70;;;;;;601641;238;26649;-65
2022/03/29 04:48:52;;;;;;;18.13;13.30;;;6.60;96.10;;;;;;601517;237;26958;-64
2022/03/29 04:51:20;;;;;;;13.40;11.27;;;6.50;96.40;;;;;;607905;235;26604;-64
2022/03/29 04:53:48;;;;;;;10.80;9.30;;;6.60;96.50;;;;;;603171;235;26746;-63
2022/03/29 04:56:15;;;;;;;15.73;12.17;;;6.60;96.50;;;;;;604933;233;26683;-62
2022/03/29 04:58:42;;;;;;;15.43;12.45;;;6.50;95.80;;;;;;602659;237;26587;-62
2022/03/29 05:01:10;;;;;;;14.90;11.53;;;6.50;95.40;;;;;;604089;234;26837;-62
2022/03/29 05:03:37;;;;;;;17.70;11.93;;;6.50;95.20;;;;;;604218;236;26653;-62
2022/03/29 05:06:04;;;;;;;15.40;12.23;;;6.40;95.40;;;;;;608884;235;26841;-62
2022/03/29 05:08:32;;;;;;;16.70;10.93;;;6.50;95.50;;;;;;612988;235;26661;-63
2022/03/29 05:11:00;;;;;;;15.80;11.83;;;6.60;95.70;;;;;;609865;235;27008;-63
2022/03/29 05:13:28;;;;;;;13.73;10.48;;;6.70;95.40;;;;;;604795;236;26853;-63
2022/03/29 05:15:55;;;;;;;10.73;8.80;;;6.40;95.70;;;;;;602001;236;26600;-63
2022/03/29 05:18:23;;;;;;;17.73;11.47;;;6.50;95.50;;;;;;605220;236;26659;-63
2022/03/29 05:20:52;;;;;;;14.65;10.55;;;6.70;95.30;;;;;;604450;235;26611;-63
2022/03/29 05:23:20;;;;;;;12.70;10.40;;;6.70;95.40;;;;;;611964;235;26579;-63
2022/03/29 05:25:49;;;;;;;19.23;15.00;;;6.70;94.80;;;;;;606632;235;26607;-64
2022/03/29 05:28:17;;;;;;;15.68;10.82;;;6.60;95.00;;;;;;610150;236;26655;-64
2022/03/29 05:30:45;;;;;;;15.45;12.45;;;6.50;95.30;;;;;;610070;235;26632;-63
2022/03/29 05:33:15;;;;;;;15.20;11.68;;;6.50;95.70;;;;;;609888;236;26596;-64
2022/03/29 05:35:41;;;;;;;11.25;9.85;;;6.60;95.80;;;;;;609746;235;26623;-64
2022/03/29 05:38:09;;;;;;;17.73;13.30;;;6.60;95.20;;;;;;609808;236;26624;-64
2022/03/29 05:40:37;;;;;;;17.40;11.30;;;6.60;95.70;;;;;;609847;235;26561;-64
2022/03/29 05:43:09;;;;;;;14.07;11.18;;;6.80;95.50;;;;;;609716;236;26572;-64
2022/03/29 05:45:36;;;;;;;16.95;12.45;;;6.70;95.40;;;;;;609796;235;26876;-64
2022/03/29 05:50:36;;;;;;;15.83;11.83;;;6.70;95.20;;;;;;609843;236;27270;-64
2022/03/29 05:53:03;;;;;;;18.73;12.40;;;6.60;95.20;;;;;;609849;235;26569;-65
2022/03/29 05:55:30;;;;;;;14.70;12.55;;;6.60;95.50;;;;;;609875;236;26873;-64
2022/03/29 05:57:57;;;;;;;19.05;11.25;;;6.60;95.70;;;;;;609904;235;26573;-64
2022/03/29 06:00:25;;;;;;;12.07;9.90;;;6.60;95.90;;;;;;609932;236;27228;-65
2022/03/29 06:02:53;;;;;;;18.37;12.57;;;6.60;95.80;;;;;;609863;235;26573;-65
2022/03/29 06:05:20;;;;;;;15.13;11.55;;;6.60;95.60;;;;;;609823;235;26617;-64
2022/03/29 06:07:48;;;;;;;18.52;12.32;;;6.60;95.80;;;;;;611441;233;26631;-65
2022/03/29 06:10:15;;;;;;;20.23;12.93;;;6.60;95.50;;;;;;611028;235;26632;-64
2022/03/29 06:12:45;;;;;;;21.87;12.98;;;6.60;95.60;;;;;;610777;235;26580;-67
2022/03/29 06:15:11;;;;;;;12.65;9.68;;;6.60;95.50;;;;;;610926;235;26864;-65
2022/03/29 06:17:39;;;;;;;15.00;10.38;;;6.70;95.80;;;;;;610835;236;26547;-65
2022/03/29 06:20:06;;;;;;;11.70;9.23;;;6.80;95.90;;;;;;610823;235;26792;-65
2022/03/29 06:22:34;;;;;;;18.02;9.45;;;7.20;95.60;;;;;;610778;235;26796;-65
2022/03/29 06:25:00;;;;;;;9.53;7.87;;;7.10;95.10;;;;;;610609;235;26620;-65
2022/03/29 06:27:28;;;;;;;8.20;7.27;;;7.20;95.60;;;;;;610393;236;26609;-65
2022/03/29 06:29:57;;;;;;;12.07;8.07;;;7.70;94.50;;;;;;610203;236;26640;-65
2022/03/29 06:32:24;;;;;;;7.95;6.40;;;7.60;93.40;;;;;;609275;236;26651;-65
2022/03/29 06:34:51;;;;;;;14.32;7.12;;;7.60;93.40;;;;;;604164;236;26610;-66
2022/03/29 06:37:19;;;;;;;7.78;5.78;;;7.90;93.90;;;;;;603956;236;26789;-65
2022/03/29 06:39:46;;;;;;;8.20;5.70;;;7.80;93.70;;;;;;603977;236;26879;-65
2022/03/29 06:42:18;;;;;;;11.25;6.68;;;8.10;93.90;;;;;;605092;236;26596;-64
2022/03/29 06:44:40;;;;;;;9.63;6.55;;;8.10;92.90;;;;;;605485;235;26887;-65
2022/03/29 06:47:10;;;;;;;9.93;7.35;;;8.10;92.40;;;;;;603946;236;26589;-65
2022/03/29 06:49:36;;;;;;;14.40;11.25;;;8.10;92.00;;;;;;603963;236;26602;-65
2022/03/29 06:52:05;;;;;;;9.90;6.20;;;8.00;91.90;;;;;;603794;236;26631;-65
2022/03/29 06:54:33;;;;;;;9.75;6.70;;;8.10;92.20;;;;;;604196;235;26660;-64
2022/03/29 06:57:01;;;;;;;11.27;8.25;;;8.20;92.00;;;;;;605119;235;26646;-64
2022/03/29 06:59:28;;;;;;;9.07;5.90;;;8.10;91.60;;;;;;606088;235;26881;-64
2022/03/29 07:01:55;;;;;;;11.43;9.13;;;8.20;91.70;;;;;;607893;234;26607;-64
2022/03/29 07:04:23;;;;;;;8.45;5.97;;;8.30;91.20;;;;;;602817;237;26853;-64
2022/03/29 07:06:50;;;;;;;14.27;8.73;;;8.30;91.30;;;;;;607848;231;27181;-64
2022/03/29 07:11:50;;;;;;;12.80;9.73;;;8.40;90.90;;;;;;611629;234;26655;-64
2022/03/29 07:14:18;;;;;;;10.27;7.62;;;8.40;91.30;;;;;;604628;236;26644;-64
2022/03/29 07:16:46;;;;;;;10.13;8.98;;;8.70;90.40;;;;;;605531;232;27380;-65
2022/03/29 07:19:12;;;;;;;8.15;6.97;;;8.70;90.60;;;;;;609104;234;26636;-65
2022/03/29 07:21:39;;;;;;;17.00;11.45;;;8.80;90.40;;;;;;605779;230;26597;-67
2022/03/29 07:24:06;;;;;;;20.95;12.93;;;8.60;85.90;;;;;;607215;234;26581;-65
2022/03/29 07:26:34;;;;;;;60.45;20.98;;;8.30;85.40;;;;;;605141;234;26850;-65
2022/03/29 07:29:01;;;;;;;44.08;18.30;;;8.20;88.60;;;;;;604580;236;26589;-66
2022/03/29 07:31:29;;;;;;;49.90;18.92;;;8.10;91.10;;;;;;604182;236;26827;-67
2022/03/29 07:33:57;;;;;;;20.42;13.07;;;8.00;85.40;;;;;;605646;235;26635;-67
2022/03/29 07:36:25;;;;;;;58.63;23.15;;;8.50;91.30;;;;;;604471;235;26620;-67
2022/03/29 07:38:52;;;;;;;57.13;22.58;;;8.50;90.90;;;;;;606907;235;26595;-68
2022/03/29 07:41:20;;;;;;;42.05;19.48;;;8.50;89.70;;;;;;605149;235;26600;-68
2022/03/29 07:43:48;;;;;;;20.02;13.13;;;8.70;91.20;;;;;;604982;236;26585;-74
2022/03/29 07:46:16;;;;;;;19.02;11.82;;;8.90;88.70;;;;;;601675;239;26578;-75
2022/03/29 07:48:44;;;;;;;24.92;9.52;;;9.20;86.50;;;;;;602191;238;26590;-75
2022/03/29 07:51:12;;;;;;;12.27;9.20;;;9.20;85.60;;;;;;603945;233;26577;-75
2022/03/29 07:53:40;;;;;;;15.40;10.30;;;9.20;85.50;;;;;;603234;237;26841;-76
2022/03/29 07:56:07;;;;;;;12.50;7.93;;;8.90;79.70;;;;;;604444;238;26598;-76
2022/03/29 07:58:34;;;;;;;10.38;7.25;;;9.40;83.30;;;;;;605201;236;26825;-75
2022/03/29 08:01:02;;;;;;;13.60;8.80;;;9.30;84.00;;;;;;608621;236;27212;-76
2022/03/29 08:03:32;;;;;;;12.88;8.38;;;9.60;78.40;;;;;;606528;236;26645;-73
2022/03/29 08:05:57;;;;;;;25.20;11.40;;;9.50;77.60;;;;;;604657;236;27004;-74
2022/03/29 08:08:23;;;;;;;16.50;9.15;;;9.20;75.70;;;;;;601467;239;26648;-74
2022/03/29 08:10:50;;;;;;;13.20;8.43;;;8.80;75.30;;;;;;610993;235;26884;-74
2022/03/29 08:13:18;;;;;;;13.70;8.05;;;8.80;76.90;;;;;;606440;232;26592;-74
2022/03/29 08:15:46;;;;;;;8.15;7.25;;;8.70;78.20;;;;;;605250;235;26609;-75
2022/03/29 08:18:15;;;;;;;8.15;6.87;;;8.70;79.50;;;;;;603783;238;26589;-74
2022/03/29 08:20:41;;;;;;;11.45;7.68;;;8.70;79.40;;;;;;608891;236;26835;-75
2022/03/29 08:23:08;;;;;;;11.95;8.02;;;8.70;78.70;;;;;;606125;236;26587;-74
2022/03/29 08:25:36;;;;;;;12.73;7.25;;;8.90;78.30;;;;;;609733;236;26819;-74
2022/03/29 08:28:04;;;;;;;10.43;6.82;;;9.30;80.30;;;;;;606312;236;26604;-72
2022/03/29 08:30:31;;;;;;;9.32;6.12;;;9.30;79.70;;;;;;610157;233;26645;-76
2022/03/29 08:32:59;;;;;;;10.48;7.78;;;9.10;78.80;;;;;;602700;235;26864;-73
2022/03/29 08:35:26;;;;;;;8.38;6.40;;;9.10;77.20;;;;;;606782;234;26663;-73
2022/03/29 08:37:53;;;;;;;7.95;6.65;;;9.00;77.80;;;;;;606752;232;26870;-74
2022/03/29 08:40:25;;;;;;;10.75;6.72;;;8.90;74.90;;;;;;610687;235;26626;-71
2022/03/29 08:42:54;;;;;;;10.10;6.50;;;9.20;75.20;;;;;;605516;237;26594;-71
2022/03/29 08:45:18;;;;;;;7.90;6.28;;;9.20;76.90;;;;;;605475;233;26622;-66
2022/03/29 08:47:45;;;;;;;10.25;6.90;;;9.20;76.90;;;;;;606864;235;26849;-66
2022/03/29 08:50:12;;;;;;;11.32;6.43;;;9.30;78.70;;;;;;606420;236;26568;-66
2022/03/29 08:52:39;;;;;;;9.07;5.43;;;9.40;73.00;;;;;;602710;236;26829;-65
2022/03/29 08:55:08;;;;;;;7.45;6.12;;;9.50;78.60;;;;;;604875;237;26602;-66
2022/03/29 08:57:35;;;;;;;6.68;5.85;;;9.60;74.70;;;;;;603652;238;26572;-67
2022/03/29 09:00:04;;;;;;;8.00;6.32;;;9.60;74.30;;;;;;604234;237;26996;-66
2022/03/29 09:02:30;;;;;;;10.30;6.40;;;9.70;76.70;;;;;;605318;236;26570;-67
2022/03/29 09:05:07;;;;;;;11.88;6.18;;;9.90;72.40;;;;;;609337;235;26623;-67
2022/03/29 09:07:46;;;;;;;8.38;5.95;;;9.80;72.20;;;;;;603524;238;26808;-66
2022/03/29 09:10:13;;;;;;;11.10;6.53;;;9.90;77.60;;;;;;608026;236;26553;-66
2022/03/29 09:12:41;;;;;;;8.52;5.70;;;10.50;70.40;;;;;;609329;235;26579;-66
2022/03/29 09:15:09;;;;;;;8.43;5.68;;;10.50;70.50;;;;;;603857;236;26667;-66
2022/03/29 09:17:39;;;;;;;6.45;5.25;;;10.50;69.90;;;;;;605884;235;26590;-66
2022/03/29 09:20:10;;;;;;;6.53;5.80;;;10.60;74.40;;;;;;603596;233;26632;-66
2022/03/29 09:22:50;;;;;;;5.93;5.35;;;10.40;73.20;;;;;;602052;237;26856;-66
2022/03/29 09:25:17;;;;;;;7.78;5.00;;;10.40;69.60;;;;;;603449;237;26591;-66
2022/03/29 09:27:50;;;;;;;6.68;6.05;;;10.60;75.30;;;;;;601484;239;26859;-66
2022/03/29 09:30:17;;;;;;;6.50;5.75;;;10.80;68.70;;;;;;601475;239;26589;-66
2022/03/29 09:33:04;;;;;;;7.65;5.00;;;11.10;70.60;;;;;;605319;235;26612;-67
2022/03/29 09:35:30;;;;;;;7.12;5.55;;;11.10;70.50;;;;;;611205;235;26673;-66
2022/03/29 09:37:57;;;;;;;9.70;6.90;;;10.80;66.30;;;;;;604684;235;26600;-67
2022/03/29 09:40:32;;;;;;;8.43;5.82;;;10.70;67.80;;;;;;603812;235;26623;-66
2022/03/29 09:43:00;;;;;;;6.75;5.60;;;10.60;67.80;;;;;;606115;236;26796;-66
2022/03/29 09:45:38;;;;;;;6.10;5.50;;;10.60;69.70;;;;;;603064;237;26616;-66
2022/03/29 09:48:18;;;;;;;7.93;5.70;;;10.70;69.30;;;;;;604517;236;26624;-66
2022/03/29 09:50:44;;;;;;;7.62;5.60;;;10.70;67.90;;;;;;603940;237;26997;-66
2022/03/29 09:53:11;;;;;;;8.70;6.05;;;10.90;68.10;;;;;;602844;238;26579;-66
2022/03/29 09:55:39;;;;;;;9.73;5.93;;;10.90;68.90;;;;;;603399;237;26869;-66
2022/03/29 09:58:06;;;;;;;11.30;5.97;;;11.00;64.80;;;;;;604595;238;26612;-66
2022/03/29 10:00:33;;;;;;;6.85;6.15;;;10.80;68.30;;;;;;600692;239;26567;-66
2022/03/29 10:03:01;;;;;;;9.98;8.80;;;11.10;64.50;;;;;;601746;237;26582;-66
2022/03/29 10:05:30;;;;;;;7.97;6.18;;;10.90;64.90;;;;;;608551;236;26651;-66
2022/03/29 10:09:25;;;;;;;9.75;6.65;;;10.70;65.50;;;;;;602531;238;26619;-66
2022/03/29 10:10:25;;;;;;;9.50;5.95;;;10.60;65.70;;;;;;604846;236;26853;-65
2022/03/29 10:12:52;;;;;;;6.70;6.00;;;10.80;65.70;;;;;;606803;235;26585;-66
2022/03/29 10:15:21;;;;;;;9.65;6.80;;;10.80;67.40;;;;;;602261;238;27309;-66
2022/03/29 10:17:48;;;;;;;7.70;5.18;;;11.00;65.20;;;;;;602084;238;26581;-65
2022/03/29 10:20:15;;;;;;;9.43;6.53;;;11.10;63.70;;;;;;603358;237;26840;-64
2022/03/29 10:22:41;;;;;;;10.63;5.72;;;11.20;63.20;;;;;;604023;237;26586;-65
2022/03/29 10:25:09;;;;;;;8.07;5.78;;;11.20;65.10;;;;;;604208;237;26852;-66
2022/03/29 10:27:36;;;;;;;8.95;5.65;;;11.40;63.80;;;;;;604756;238;26806;-66
2022/03/29 10:30:04;;;;;;;10.20;6.40;;;11.20;64.00;;;;;;604741;237;26602;-66
2022/03/29 10:32:32;;;;;;;6.82;5.35;;;11.20;61.10;;;;;;604785;238;26583;-66
2022/03/29 10:35:01;;;;;;;9.70;5.30;;;11.30;61.70;;;;;;604764;237;26583;-66
2022/03/29 10:37:28;;;;;;;8.10;5.87;;;11.20;61.40;;;;;;604785;238;26792;-65
2022/03/29 10:39:57;;;;;;;9.98;6.30;;;11.30;58.20;;;;;;604985;237;26543;-66
2022/03/29 10:42:25;;;;;;;6.97;5.20;;;10.80;56.80;;;;;;604963;237;26805;-66
2022/03/29 10:44:59;;;;;;;8.15;6.22;;;11.00;58.90;;;;;;604994;237;26861;-66
2022/03/29 10:47:26;;;;;;;11.52;5.80;;;10.90;57.60;;;;;;604964;238;26555;-67
2022/03/29 10:49:54;;;;;;;6.72;5.22;;;11.50;58.70;;;;;;604975;237;26559;-66
2022/03/29 10:52:29;;;;;;;10.63;6.25;;;11.30;59.20;;;;;;605393;236;26549;-66
2022/03/29 10:55:21;;;;;;;5.72;4.78;;;11.30;59.10;;;;;;606343;237;26580;-66
2022/03/29 10:58:00;;;;;;;8.82;5.50;;;11.60;63.40;;;;;;605949;236;26559;-66
2022/03/29 11:00:31;;;;;;;11.57;7.85;;;11.50;58.50;;;;;;605808;236;26557;-66
2022/03/29 11:03:16;;;;;;;8.57;6.53;;;11.50;58.50;;;;;;605545;237;26595;-66
2022/03/29 11:05:55;;;;;;;8.80;5.20;;;11.10;58.50;;;;;;603731;237;26655;-66
2022/03/29 11:08:23;;;;;;;9.05;6.70;;;11.60;59.10;;;;;;605522;237;26599;-67
2022/03/29 11:10:51;;;;;;;14.55;8.13;;;11.60;57.00;;;;;;605169;237;26630;-66
2022/03/29 11:13:32;;;;;;;6.40;5.15;;;11.50;59.00;;;;;;604892;238;26595;-66
2022/03/29 11:16:02;;;;;;;6.18;5.18;;;11.50;59.10;;;;;;604885;237;26587;-66
2022/03/29 11:18:38;;;;;;;12.18;7.50;;;11.50;56.80;;;;;;604877;237;26558;-66
2022/03/29 11:21:05;;;;;;;7.00;5.75;;;11.40;56.90;;;;;;604766;238;26594;-66
2022/03/29 11:23:33;;;;;;;6.70;5.55;;;11.80;57.40;;;;;;604936;237;26590;-66
2022/03/29 11:26:06;;;;;;;5.82;5.03;;;11.80;57.20;;;;;;604593;236;26847;-65
2022/03/29 11:28:34;;;;;;;7.85;4.35;;;12.10;54.20;;;;;;603220;236;26640;-64
2022/03/29 11:31:02;;;;;;;7.12;4.95;;;12.10;55.10;;;;;;607966;235;26602;-64
2022/03/29 11:33:30;;;;;;;9.90;5.57;;;12.00;56.10;;;;;;602079;236;26637;-64
2022/03/29 11:35:57;;;;;;;6.20;5.12;;;11.90;55.80;;;;;;605088;235;26651;-64
2022/03/29 11:38:25;;;;;;;8.65;5.43;;;12.10;55.30;;;;;;603555;237;26590;-64
2022/03/29 11:40:52;;;;;;;8.00;5.45;;;11.90;53.00;;;;;;605363;236;27316;-64
2022/03/29 11:43:22;;;;;;;6.75;4.57;;;11.90;51.80;;;;;;607947;235;26578;-64
2022/03/29 11:45:49;;;;;;;6.62;4.65;;;11.80;52.70;;;;;;604483;234;26970;-64
2022/03/29 11:48:17;;;;;;;7.93;4.78;;;12.10;51.80;;;;;;602138;234;26632;-64
2022/03/29 11:50:49;;;;;;;4.70;4.25;;;12.00;50.70;;;;;;606405;236;26633;-64
2022/03/29 11:53:19;;;;;;;7.87;4.30;;;12.10;53.00;;;;;;603429;238;27266;-64
2022/03/29 11:55:52;;;;;;;5.50;4.00;;;12.10;50.10;;;;;;602864;234;26657;-64
2022/03/29 11:58:22;;;;;;;6.43;3.97;;;12.00;50.80;;;;;;602189;238;26649;-64
2022/03/29 12:00:48;;;;;;;6.68;4.30;;;12.10;54.40;;;;;;608177;236;26582;-64
2022/03/29 12:03:29;;;;;;;4.70;3.60;;;12.10;49.60;;;;;;604247;236;26850;-64
2022/03/29 12:06:03;;;;;;;5.40;3.85;;;12.20;51.30;;;;;;611363;233;26694;-64
2022/03/29 12:09:00;;;;;;;4.78;3.53;;;12.20;51.30;;;;;;606329;235;26873;-64
2022/03/29 12:11:28;;;;;;;5.10;3.97;;;12.20;49.00;;;;;;607542;235;27146;-64
2022/03/29 12:14:13;;;;;;;4.05;3.53;;;12.30;50.00;;;;;;603315;237;26651;-64
2022/03/29 12:16:41;;;;;;;12.37;4.18;;;12.40;49.80;;;;;;604998;237;26621;-64
2022/03/29 12:19:11;;;;;;;5.07;3.08;;;12.60;51.30;;;;;;604207;237;26668;-64
2022/03/29 12:21:38;;;;;;;3.95;3.05;;;12.60;48.40;;;;;;603218;238;26616;-64
2022/03/29 12:24:06;;;;;;;3.45;3.15;;;12.60;49.70;;;;;;604846;237;26814;-64
2022/03/29 12:26:33;;;;;;;11.73;3.65;;;12.70;49.70;;;;;;608727;236;26672;-64
2022/03/29 12:29:01;;;;;;;3.58;3.20;;;12.60;48.80;;;;;;608158;235;26882;-64
2022/03/29 12:31:30;;;;;;;5.15;3.08;;;12.50;49.80;;;;;;603123;237;26603;-64
2022/03/29 12:33:58;;;;;;;3.42;2.90;;;12.60;48.20;;;;;;605497;235;26577;-64
2022/03/29 12:36:26;;;;;;;5.53;2.78;;;12.40;48.40;;;;;;605052;235;26625;-65
2022/03/29 12:38:55;;;;;;;5.30;2.83;;;12.60;48.80;;;;;;606767;235;26648;-64
2022/03/29 12:41:33;;;;;;;4.45;2.87;;;12.40;48.50;;;;;;604004;234;26685;-65
2022/03/29 12:44:00;;;;;;;4.70;2.90;;;12.40;49.00;;;;;;603648;235;26610;-65
2022/03/29 12:46:27;;;;;;;3.30;2.47;;;12.50;48.00;;;;;;608190;236;27261;-64
2022/03/29 12:48:54;;;;;;;4.15;2.42;;;12.50;48.90;;;;;;606255;235;26666;-65
2022/03/29 12:51:26;;;;;;;4.22;3.20;;;12.90;50.50;;;;;;605215;235;26862;-66
2022/03/29 12:53:56;;;;;;;7.32;3.47;;;12.70;48.70;;;;;;602477;236;26593;-66
2022/03/29 12:56:28;;;;;;;5.03;2.72;;;12.90;48.80;;;;;;601802;238;26689;-65
2022/03/29 12:58:56;;;;;;;5.82;3.17;;;12.70;49.20;;;;;;612471;233;26954;-66